createdAt,value
2023-02-17T00:00:35.577Z,99810.39
2023-02-17T00:01:39.512Z,99811.24
2023-02-17T00:02:42.408Z,99808.45
2023-02-17T00:03:46.755Z,99808.45
2023-02-17T00:04:49.820Z,99807.61
2023-02-17T00:05:52.989Z,99803.09
2023-02-17T00:06:56.059Z,99803.09
2023-02-17T00:07:59.094Z,99801.41
2023-02-17T00:09:01.984Z,99797.85
2023-02-17T00:10:06.425Z,99803.20
2023-02-17T00:11:10.016Z,99793.48
2023-02-17T00:12:13.526Z,99794.44
2023-02-17T00:13:16.686Z,99797.12
2023-02-17T00:14:21.197Z,99794.55
2023-02-17T00:15:24.686Z,99798.19
2023-02-17T00:16:32.646Z,99800.02
2023-02-17T00:17:36.987Z,99801.82
2023-02-17T00:18:44.870Z,99799.14
2023-02-17T00:19:48.232Z,99793.91
2023-02-17T00:20:50.998Z,99791.22
2023-02-17T00:21:56.137Z,99793.91
2023-02-17T00:22:58.868Z,99798.41
2023-02-17T00:24:01.168Z,99792.18
2023-02-17T00:25:06.001Z,99786.94
2023-02-17T00:26:08.796Z,99784.26
2023-02-17T00:27:11.849Z,99794.97
2023-02-17T00:28:14.222Z,99793.17
2023-02-17T00:29:16.740Z,99798.52
2023-02-17T00:30:22.038Z,99789.61
2023-02-17T00:31:24.738Z,99795.92
2023-02-17T00:32:27.229Z,99790.56
2023-02-17T00:33:31.127Z,99793.25
2023-02-17T00:34:35.377Z,99790.56
2023-02-17T00:35:41.340Z,99788.77
2023-02-17T00:36:45.186Z,99786.09
2023-02-17T00:37:47.516Z,99784.38
2023-02-17T00:38:51.454Z,99789.61
2023-02-17T00:39:54.471Z,99784.26
2023-02-17T00:40:57.049Z,99782.45
2023-02-17T00:41:59.845Z,99785.02
2023-02-17T00:43:04.108Z,99781.47
2023-02-17T00:44:06.754Z,99776.11
2023-02-17T00:45:17.742Z,99774.31
2023-02-17T00:46:22.740Z,99774.31
2023-02-17T00:47:28.799Z,99775.05
2023-02-17T00:48:31.296Z,99775.05
2023-02-17T00:49:36.320Z,99765.22
2023-02-17T00:50:38.930Z,99758.02
2023-02-17T00:51:41.636Z,99759.86
2023-02-17T00:52:44.641Z,99758.02
2023-02-17T00:53:48.717Z,99758.87
2023-02-17T00:54:52.689Z,99749.98
2023-02-17T00:55:55.861Z,99750.84
2023-02-17T00:56:58.319Z,99749.98
2023-02-17T00:58:02.269Z,99749.98
2023-02-17T00:59:05.913Z,99754.39
2023-02-17T01:00:11.077Z,99754.39
2023-02-17T01:01:14.525Z,99750.72
2023-02-17T01:02:16.945Z,99749.03
2023-02-17T01:03:19.274Z,99749.03
2023-02-17T01:04:21.908Z,99753.41
2023-02-17T01:05:24.268Z,99748.05
2023-02-17T01:06:32.998Z,99741.20
2023-02-17T01:07:37.739Z,99741.20
2023-02-17T01:08:42.363Z,99747.96
2023-02-17T01:09:44.604Z,99751.48
2023-02-17T01:11:03.363Z,99747.09
2023-02-17T01:12:11.516Z,99756.84
2023-02-17T01:13:16.328Z,99746.24
2023-02-17T01:14:18.899Z,99743.56
2023-02-17T01:15:22.154Z,99739.05
2023-02-17T01:17:40.930Z,99731.25
2023-02-17T01:18:43.109Z,99740.89
2023-02-17T01:19:47.933Z,99740.89
2023-02-17T01:20:52.669Z,99733.81
2023-02-17T01:21:55.002Z,99734.66
2023-02-17T01:22:57.395Z,99734.66
2023-02-17T01:24:01.316Z,99725.78
2023-02-17T01:25:05.928Z,99731.02
2023-02-17T01:26:15.443Z,99728.34
2023-02-17T01:27:18.828Z,99729.30
2023-02-17T01:28:23.361Z,99732.86
2023-02-17T01:29:26.343Z,99724.82
2023-02-17T01:30:29.559Z,99723.10
2023-02-17T01:31:32.316Z,99727.50
2023-02-17T01:32:36.539Z,99724.94
2023-02-17T01:33:39.323Z,99730.17
2023-02-17T01:34:43.591Z,99728.45
2023-02-17T01:35:46.686Z,99722.14
2023-02-17T01:36:49.775Z,99725.78
2023-02-17T01:37:52.773Z,99714.23
2023-02-17T01:38:55.600Z,99719.47
2023-02-17T01:39:58.630Z,99715.91
2023-02-17T01:41:03.486Z,99713.23
2023-02-17T01:42:06.915Z,99715.91
2023-02-17T01:43:13.214Z,99726.63
2023-02-17T01:44:20.095Z,99726.63
2023-02-17T01:46:46.706Z,99722.37
2023-02-17T01:49:09.443Z,99726.00
2023-02-17T01:50:12.777Z,99722.26
2023-02-17T01:51:19.611Z,99723.22
2023-02-17T01:52:23.765Z,99721.38
2023-02-17T01:54:50.571Z,99717.97
2023-02-17T01:55:53.788Z,99716.91
2023-02-17T01:56:57.240Z,99716.91
2023-02-17T01:58:00.665Z,99719.58
2023-02-17T01:59:10.327Z,99721.38
2023-02-17T02:00:15.539Z,99722.26
2023-02-17T02:01:19.330Z,99727.61
2023-02-17T02:02:22.302Z,99714.23
2023-02-17T02:03:25.995Z,99713.34
2023-02-17T02:04:29.975Z,99716.03
2023-02-17T02:05:33.015Z,99721.38
2023-02-17T02:06:38.064Z,99722.26
2023-02-17T02:07:41.718Z,99718.70
2023-02-17T02:09:05.413Z,99724.06
2023-02-17T02:10:09.291Z,99716.03
2023-02-17T02:11:12.120Z,99724.06
2023-02-17T02:13:30.056Z,99718.09
2023-02-17T02:14:36.490Z,99723.33
2023-02-17T02:15:44.728Z,99728.69
2023-02-17T02:17:10.729Z,99726.97
2023-02-17T02:20:11.068Z,99725.27
2023-02-17T02:21:17.639Z,99728.80
2023-02-17T02:22:25.143Z,99730.59
2023-02-17T02:23:37.281Z,99735.95
2023-02-17T02:25:06.341Z,99728.99
2023-02-17T02:26:47.069Z,99728.03
2023-02-17T02:29:43.614Z,99723.10
2023-02-17T02:31:03.592Z,99731.05
2023-02-17T02:32:19.403Z,99728.48
2023-02-17T02:33:26.396Z,99728.59
2023-02-17T02:34:34.802Z,99725.05
2023-02-17T02:35:47.627Z,99727.72
2023-02-17T02:37:11.381Z,99730.41
2023-02-17T02:38:24.101Z,99732.23
2023-02-17T02:39:29.935Z,99734.91
2023-02-17T02:40:35.017Z,99730.41
2023-02-17T02:41:40.932Z,99732.23
2023-02-17T02:42:43.475Z,99728.71
2023-02-17T02:43:47.717Z,99729.55
2023-02-17T02:44:50.040Z,99723.36
2023-02-17T02:45:52.899Z,99723.36
2023-02-17T02:48:20.601Z,99725.13
2023-02-17T02:49:23.073Z,99723.13
2023-02-17T02:50:42.636Z,99722.26
2023-02-17T02:53:48.994Z,99731.98
2023-02-17T02:54:59.574Z,99735.45
2023-02-17T02:57:55.996Z,99732.97
2023-02-17T03:00:14.584Z,99732.01
2023-02-17T03:01:23.626Z,99728.48
2023-02-17T03:02:35.784Z,99732.01
2023-02-17T03:04:57.028Z,99728.48
2023-02-17T03:07:19.196Z,99736.29
2023-02-17T03:09:40.298Z,99730.17
2023-02-17T03:10:50.640Z,99729.22
2023-02-17T03:11:57.043Z,99726.54
2023-02-17T03:13:01.831Z,99728.38
2023-02-17T03:14:11.066Z,99732.77
2023-02-17T03:15:32.671Z,99725.58
2023-02-17T03:16:36.715Z,99727.30
2023-02-17T03:17:39.327Z,99725.58
2023-02-17T03:18:42.585Z,99725.58
2023-02-17T03:19:47.047Z,99729.87
2023-02-17T03:20:57.185Z,99726.31
2023-02-17T03:27:34.486Z,99718.20
2023-02-17T03:30:44.397Z,99722.56
2023-02-17T03:38:04.004Z,99717.86
2023-02-17T03:41:13.189Z,99728.45
2023-02-17T03:43:19.398Z,99732.86
2023-02-17T03:45:26.408Z,99738.21
2023-02-17T03:50:40.288Z,99735.42
2023-02-17T03:55:56.051Z,99727.39
2023-02-17T03:57:00.541Z,99728.34
2023-02-17T03:59:06.863Z,99727.39
2023-02-17T04:01:17.063Z,99730.06
2023-02-17T04:02:20.264Z,99730.91
2023-02-17T04:03:22.821Z,99732.74
2023-02-17T04:04:25.225Z,99731.90
2023-02-17T04:05:28.782Z,99731.78
2023-02-17T04:06:32.225Z,99730.91
2023-02-17T04:07:34.790Z,99733.47
2023-02-17T04:08:37.685Z,99737.98
2023-02-17T04:09:41.708Z,99737.98
2023-02-17T04:10:45.828Z,99737.98
2023-02-17T04:11:48.292Z,99729.95
2023-02-17T04:12:51.424Z,99746.02
2023-02-17T04:13:54.586Z,99744.30
2023-02-17T04:14:57.829Z,99741.50
2023-02-17T04:16:00.880Z,99740.66
2023-02-17T04:17:03.522Z,99746.02
2023-02-17T04:18:07.005Z,99737.14
2023-02-17T04:19:09.738Z,99750.41
2023-02-17T04:20:13.518Z,99738.83
2023-02-17T04:21:16.015Z,99740.66
2023-02-17T04:22:18.975Z,99736.15
2023-02-17T04:23:22.591Z,99742.38
2023-02-17T04:24:24.969Z,99743.34
2023-02-17T04:25:27.511Z,99741.50
2023-02-17T04:26:30.130Z,99743.23
2023-02-17T04:27:32.479Z,99737.87
2023-02-17T04:28:41.391Z,99729.84
2023-02-17T04:29:43.746Z,99743.23
2023-02-17T04:30:47.797Z,99736.03
2023-02-17T04:31:50.822Z,99737.02
2023-02-17T04:32:54.418Z,99738.72
2023-02-17T04:33:57.018Z,99741.39
2023-02-17T04:35:00.115Z,99741.39
2023-02-17T04:36:04.644Z,99736.03
2023-02-17T04:37:07.551Z,99745.06
2023-02-17T04:38:11.636Z,99740.55
2023-02-17T04:39:14.253Z,99740.55
2023-02-17T04:40:18.633Z,99746.75
2023-02-17T04:41:21.390Z,99745.91
2023-02-17T04:42:23.687Z,99744.06
2023-02-17T04:43:27.054Z,99743.23
2023-02-17T04:44:30.670Z,99744.95
2023-02-17T04:45:34.322Z,99747.63
2023-02-17T04:46:36.848Z,99748.47
2023-02-17T04:47:39.155Z,99752.05
2023-02-17T04:48:43.421Z,99755.66
2023-02-17T04:49:46.985Z,99752.10
2023-02-17T04:50:51.352Z,99752.98
2023-02-17T04:51:54.157Z,99753.83
2023-02-17T04:52:57.452Z,99753.83
2023-02-17T04:54:01.528Z,99751.14
2023-02-17T04:55:06.372Z,99752.98
2023-02-17T04:56:09.789Z,99756.50
2023-02-17T04:57:13.047Z,99753.83
2023-02-17T04:58:15.563Z,99754.78
2023-02-17T04:59:18.339Z,99750.30
2023-02-17T05:00:22.413Z,99758.34
2023-02-17T05:01:25.428Z,99764.53
2023-02-17T05:02:29.824Z,99755.66
2023-02-17T05:03:32.741Z,99758.34
2023-02-17T05:04:35.191Z,99765.49
2023-02-17T05:05:38.209Z,99759.18
2023-02-17T05:06:41.747Z,99759.18
2023-02-17T05:07:48.360Z,99762.77
2023-02-17T05:08:53.056Z,99761.02
2023-02-17T05:09:55.513Z,99763.69
2023-02-17T05:10:57.899Z,99761.02
2023-02-17T05:12:00.291Z,99758.34
2023-02-17T05:13:03.864Z,99767.22
2023-02-17T05:14:06.700Z,99759.18
2023-02-17T05:15:09.618Z,99774.41
2023-02-17T05:16:12.542Z,99775.25
2023-02-17T05:17:14.935Z,99771.64
2023-02-17T05:18:17.581Z,99771.64
2023-02-17T05:19:20.311Z,99773.48
2023-02-17T05:20:23.704Z,99772.48
2023-02-17T05:21:27.251Z,99767.13
2023-02-17T05:22:30.716Z,99769.81
2023-02-17T05:23:33.340Z,99772.48
2023-02-17T05:24:38.582Z,99776.89
2023-02-17T05:25:41.794Z,99776.89
2023-02-17T05:26:44.528Z,99778.72
2023-02-17T05:27:48.120Z,99780.41
2023-02-17T05:28:51.643Z,99777.73
2023-02-17T05:29:54.282Z,99775.93
2023-02-17T05:30:56.962Z,99776.89
2023-02-17T05:31:59.457Z,99775.93
2023-02-17T05:33:02.635Z,99775.05
2023-02-17T05:34:05.117Z,99783.97
2023-02-17T05:35:08.001Z,99777.66
2023-02-17T05:36:11.183Z,99777.73
2023-02-17T05:37:14.479Z,99781.28
2023-02-17T05:38:16.862Z,99787.48
2023-02-17T05:39:20.066Z,99788.36
2023-02-17T05:40:22.711Z,99789.31
2023-02-17T05:41:25.143Z,99792.00
2023-02-17T05:42:28.434Z,99789.31
2023-02-17T05:43:30.933Z,99785.77
2023-02-17T05:44:33.660Z,99791.12
2023-02-17T05:45:39.149Z,99789.31
2023-02-17T05:46:42.704Z,99790.28
2023-02-17T05:47:45.568Z,99792.11
2023-02-17T05:48:49.484Z,99792.95
2023-02-17T05:49:52.029Z,99791.12
2023-02-17T05:50:54.481Z,99796.48
2023-02-17T05:51:56.839Z,99793.91
2023-02-17T05:53:00.436Z,99804.52
2023-02-17T05:54:03.301Z,99788.86
2023-02-17T05:55:06.894Z,99788.86
2023-02-17T05:56:09.731Z,99807.19
2023-02-17T05:57:12.056Z,99809.02
2023-02-17T05:58:27.834Z,99803.55
2023-02-17T05:59:31.879Z,99809.02
2023-02-17T06:00:35.320Z,99803.67
2023-02-17T06:01:38.436Z,99806.34
2023-02-17T06:02:41.016Z,99805.50
2023-02-17T06:03:43.717Z,99800.98
2023-02-17T06:04:46.246Z,99802.83
2023-02-17T06:05:49.605Z,99803.78
2023-02-17T06:06:53.045Z,99805.50
2023-02-17T06:07:55.602Z,99802.83
2023-02-17T06:08:58.335Z,99802.83
2023-02-17T06:10:00.904Z,99810.86
2023-02-17T06:11:04.434Z,99804.63
2023-02-17T06:12:07.658Z,99808.17
2023-02-17T06:13:11.463Z,99810.86
2023-02-17T06:14:14.569Z,99819.73
2023-02-17T06:15:17.208Z,99815.34
2023-02-17T06:16:21.153Z,99818.89
2023-02-17T06:17:24.492Z,99818.02
2023-02-17T06:18:28.890Z,99818.02
2023-02-17T06:19:31.831Z,99822.53
2023-02-17T06:20:35.453Z,99823.37
2023-02-17T06:21:38.133Z,99828.73
2023-02-17T06:22:41.619Z,99826.05
2023-02-17T06:23:45.023Z,99826.05
2023-02-17T06:24:47.497Z,99837.53
2023-02-17T06:25:50.959Z,99837.53
2023-02-17T06:26:53.762Z,99832.28
2023-02-17T06:27:56.174Z,99826.92
2023-02-17T06:29:00.197Z,99834.84
2023-02-17T06:30:04.385Z,99836.65
2023-02-17T06:31:06.814Z,99837.53
2023-02-17T06:32:09.935Z,99838.48
2023-02-17T06:33:12.531Z,99834.84
2023-02-17T06:34:15.250Z,99837.53
2023-02-17T06:35:17.858Z,99837.64
2023-02-17T06:36:21.211Z,99837.64
2023-02-17T06:37:25.027Z,99837.53
2023-02-17T06:38:27.498Z,99840.20
2023-02-17T06:39:29.918Z,99844.69
2023-02-17T06:40:32.419Z,99841.16
2023-02-17T06:41:35.357Z,99841.16
2023-02-17T06:42:38.785Z,99842.00
2023-02-17T06:43:41.226Z,99841.16
2023-02-17T06:44:44.362Z,99836.77
2023-02-17T06:45:47.612Z,99844.69
2023-02-17T06:46:51.055Z,99844.69
2023-02-17T06:47:56.182Z,99844.69
2023-02-17T06:49:01.622Z,99846.52
2023-02-17T06:50:05.269Z,99844.69
2023-02-17T06:51:07.769Z,99850.04
2023-02-17T06:52:11.230Z,99857.23
2023-02-17T06:53:13.643Z,99848.23
2023-02-17T06:54:16.263Z,99850.04
2023-02-17T06:55:19.312Z,99850.04
2023-02-17T06:56:22.597Z,99841.16
2023-02-17T06:57:24.939Z,99848.23
2023-02-17T06:58:27.363Z,99850.04
2023-02-17T06:59:32.336Z,99847.36
2023-02-17T07:00:34.821Z,99858.95
2023-02-17T07:01:37.403Z,99845.56
2023-02-17T07:02:40.328Z,99844.69
2023-02-17T07:03:43.394Z,99849.20
2023-02-17T07:04:46.279Z,99858.95
2023-02-17T07:05:48.591Z,99861.63
2023-02-17T07:06:51.318Z,99855.31
2023-02-17T07:07:55.363Z,99863.34
2023-02-17T07:08:58.812Z,99863.34
2023-02-17T07:10:02.808Z,99865.16
2023-02-17T07:12:20.440Z,99857.33
2023-02-17T07:13:22.829Z,99870.51
2023-02-17T07:14:25.549Z,99867.83
2023-02-17T07:15:29.478Z,99868.70
2023-02-17T07:16:32.566Z,99867.83
2023-02-17T07:17:35.031Z,99874.06
2023-02-17T07:18:38.611Z,99870.40
2023-02-17T07:19:41.476Z,99873.08
2023-02-17T07:20:44.522Z,99873.08
2023-02-17T07:21:46.950Z,99875.75
2023-02-17T07:22:50.215Z,99872.23
2023-02-17T07:23:52.486Z,99874.06
2023-02-17T07:24:54.906Z,99875.75
2023-02-17T07:27:16.057Z,99868.69
2023-02-17T07:28:19.799Z,99874.91
2023-02-17T07:29:23.853Z,99881.11
2023-02-17T07:30:26.403Z,99876.74
2023-02-17T07:31:29.289Z,99885.63
2023-02-17T07:32:33.330Z,99886.47
2023-02-17T07:33:36.155Z,99877.59
2023-02-17T07:34:38.733Z,99886.47
2023-02-17T07:36:55.717Z,99872.33
2023-02-17T07:37:58.749Z,99881.98
2023-02-17T07:39:03.151Z,99877.59
2023-02-17T07:40:07.706Z,99872.23
2023-02-17T07:41:14.252Z,99875.75
2023-02-17T07:42:16.545Z,99875.75
2023-02-17T07:43:21.879Z,99877.59
2023-02-17T07:44:27.246Z,99878.43
2023-02-17T07:45:30.548Z,99881.11
2023-02-17T07:46:34.701Z,99879.42
2023-02-17T07:47:39.690Z,99888.30
2023-02-17T07:48:42.207Z,99882.94
2023-02-17T07:49:44.921Z,99884.78
2023-02-17T07:50:48.463Z,99881.98
2023-02-17T07:51:51.680Z,99883.79
2023-02-17T07:52:54.125Z,99873.08
2023-02-17T07:53:57.591Z,99874.80
2023-02-17T07:55:00.618Z,99877.48
2023-02-17T07:56:04.789Z,99878.43
2023-02-17T07:57:07.596Z,99883.05
2023-02-17T07:58:10.477Z,99881.98
2023-02-17T07:59:13.633Z,99880.16
2023-02-17T08:00:19.618Z,99890.02
2023-02-17T08:01:23.633Z,99889.03
2023-02-17T08:02:26.232Z,99890.02
2023-02-17T08:03:28.615Z,99885.52
2023-02-17T08:04:33.341Z,99887.23
2023-02-17T08:05:39.654Z,99881.00
2023-02-17T08:06:42.548Z,99881.88
2023-02-17T08:07:45.107Z,99889.91
2023-02-17T08:09:07.305Z,99884.55
2023-02-17T08:10:30.343Z,99886.36
2023-02-17T08:11:51.586Z,99881.88
2023-02-17T08:13:00.810Z,99885.40
2023-02-17T08:14:04.391Z,99887.34
2023-02-17T08:15:11.679Z,99881.98
2023-02-17T08:16:14.767Z,99893.66
2023-02-17T08:17:17.044Z,99890.13
2023-02-17T08:18:20.484Z,99893.66
2023-02-17T08:19:22.847Z,99887.45
2023-02-17T08:20:25.461Z,99887.45
2023-02-17T08:21:27.787Z,99887.45
2023-02-17T08:22:30.344Z,99891.83
2023-02-17T08:23:34.759Z,99898.17
2023-02-17T08:24:37.293Z,99896.34
2023-02-17T08:25:40.607Z,99902.53
2023-02-17T08:26:43.491Z,99903.52
2023-02-17T08:27:46.427Z,99906.94
2023-02-17T08:28:48.902Z,99902.42
2023-02-17T08:29:51.872Z,99900.63
2023-02-17T08:30:54.994Z,99896.22
2023-02-17T08:31:57.718Z,99895.27
2023-02-17T08:33:00.283Z,99903.30
2023-02-17T08:35:25.780Z,99902.45
2023-02-17T08:36:29.849Z,99911.23
2023-02-17T08:37:32.482Z,99913.06
2023-02-17T08:38:36.300Z,99902.34
2023-02-17T08:39:38.823Z,99897.84
2023-02-17T08:40:41.743Z,99905.03
2023-02-17T08:41:44.973Z,99904.04
2023-02-17T08:42:47.732Z,99905.88
2023-02-17T08:43:50.565Z,99907.70
2023-02-17T08:44:53.005Z,99911.23
2023-02-17T08:45:55.250Z,99911.23
2023-02-17T08:46:58.953Z,99912.08
2023-02-17T08:48:01.722Z,99919.27
2023-02-17T08:49:05.103Z,99919.27
2023-02-17T08:50:09.461Z,99913.91
2023-02-17T08:51:18.125Z,99917.43
2023-02-17T08:52:20.700Z,99920.11
2023-02-17T08:53:23.003Z,99926.34
2023-02-17T08:54:27.452Z,99920.98
2023-02-17T08:55:43.968Z,99922.78
2023-02-17T08:56:38.659Z,99930.71
2023-02-17T08:57:41.209Z,99927.19
2023-02-17T08:58:44.662Z,99932.55
2023-02-17T08:59:49.175Z,99931.70
2023-02-17T09:00:51.785Z,99935.22
2023-02-17T09:01:55.150Z,99931.70
2023-02-17T09:02:58.341Z,99935.22
2023-02-17T09:04:01.816Z,99934.38
2023-02-17T09:05:06.418Z,99937.06
2023-02-17T09:06:10.966Z,99937.06
2023-02-17T09:07:15.239Z,99931.70
2023-02-17T09:08:17.747Z,99930.82
2023-02-17T09:09:23.948Z,99941.54
2023-02-17T09:10:27.485Z,99933.50
2023-02-17T09:11:30.234Z,99935.33
2023-02-17T09:12:34.344Z,99933.61
2023-02-17T09:13:36.933Z,99937.17
2023-02-17T09:14:41.129Z,99938.13
2023-02-17T09:15:44.460Z,99937.24
2023-02-17T09:16:47.949Z,99935.44
2023-02-17T09:17:50.343Z,99933.72
2023-02-17T09:18:54.487Z,99931.89
2023-02-17T09:19:57.997Z,99942.60
2023-02-17T09:21:06.585Z,99943.48
2023-02-17T09:22:13.611Z,99937.24
2023-02-17T09:23:14.030Z,99938.13
2023-02-17T09:24:17.221Z,99941.64
2023-02-17T09:25:19.973Z,99940.80
2023-02-17T09:26:23.833Z,99941.64
2023-02-17T09:27:28.332Z,99945.28
2023-02-17T09:28:32.049Z,99946.16
2023-02-17T09:29:36.789Z,99946.16
2023-02-17T09:30:42.336Z,99941.75
2023-02-17T09:31:45.664Z,99951.52
2023-02-17T09:32:48.254Z,99943.59
2023-02-17T09:33:51.266Z,99947.11
2023-02-17T09:34:54.309Z,99946.27
2023-02-17T09:35:56.977Z,99945.39
2023-02-17T09:37:00.236Z,99944.55
2023-02-17T09:38:03.330Z,99941.02
2023-02-17T09:39:05.774Z,99946.27
2023-02-17T09:40:11.640Z,99945.39
2023-02-17T09:41:24.510Z,99940.03
2023-02-17T09:42:28.030Z,99942.71
2023-02-17T09:43:31.305Z,99948.95
2023-02-17T09:44:41.291Z,99941.86
2023-02-17T09:45:48.744Z,99934.78
2023-02-17T09:47:06.087Z,99938.34
2023-02-17T09:48:10.654Z,99942.82
2023-02-17T09:49:19.848Z,99934.78
2023-02-17T09:50:29.227Z,99940.14
2023-02-17T09:51:44.779Z,99937.46
2023-02-17T09:52:56.835Z,99934.78
2023-02-17T09:54:12.068Z,99936.73
2023-02-17T09:55:18.591Z,99941.09
2023-02-17T09:56:32.570Z,99933.94
2023-02-17T09:57:38.957Z,99938.34
2023-02-17T10:00:08.761Z,99937.80
2023-02-17T10:01:20.726Z,99934.89
2023-02-17T10:02:48.286Z,99935.00
2023-02-17T10:05:11.754Z,99942.41
2023-02-17T10:06:18.377Z,99939.56
2023-02-17T10:08:52.933Z,99937.17
2023-02-17T10:10:15.955Z,99935.19
2023-02-17T10:11:30.487Z,99941.39
2023-02-17T10:13:58.764Z,99941.75
2023-02-17T10:15:13.679Z,99941.50
2023-02-17T10:16:23.990Z,99937.20
2023-02-17T10:17:39.284Z,99937.20
2023-02-17T10:20:08.139Z,99930.38
2023-02-17T10:21:13.146Z,99936.47
2023-02-17T10:22:18.440Z,99935.59
2023-02-17T10:23:27.627Z,99931.11
2023-02-17T10:24:30.676Z,99932.06
2023-02-17T10:27:23.196Z,99933.06
2023-02-17T10:28:38.512Z,99936.47
2023-02-17T10:29:45.776Z,99932.91
2023-02-17T10:32:21.767Z,99930.67
2023-02-17T10:33:37.552Z,99935.81
2023-02-17T10:34:49.099Z,99934.19
2023-02-17T10:35:53.709Z,99925.31
2023-02-17T10:37:13.273Z,99926.16
2023-02-17T10:38:39.386Z,99932.39
2023-02-17T10:39:48.839Z,99934.19
2023-02-17T10:40:52.431Z,99934.30
2023-02-17T10:41:54.834Z,99935.26
2023-02-17T10:43:02.742Z,99929.90
2023-02-17T10:44:09.036Z,99930.89
2023-02-17T10:46:18.667Z,99932.80
2023-02-17T10:47:22.235Z,99930.23
2023-02-17T10:48:28.462Z,99932.91
2023-02-17T10:50:49.247Z,99924.03
2023-02-17T10:52:56.869Z,99923.91
2023-02-17T10:54:05.470Z,99929.38
2023-02-17T10:55:26.732Z,99934.73
2023-02-17T10:56:44.758Z,99931.95
2023-02-17T10:57:50.251Z,99936.42
2023-02-17T10:59:17.687Z,99938.15
2023-02-17T11:00:22.640Z,99942.66
2023-02-17T11:01:25.705Z,99945.44
2023-02-17T11:02:34.193Z,99940.09
2023-02-17T11:03:37.649Z,99937.52
2023-02-17T11:04:44.487Z,99937.59
2023-02-17T11:05:55.240Z,99932.34
2023-02-17T11:06:58.023Z,99941.36
2023-02-17T11:08:06.106Z,99942.42
2023-02-17T11:09:17.936Z,99941.66
2023-02-17T11:10:23.278Z,99941.02
2023-02-17T11:11:27.411Z,99941.13
2023-02-17T11:12:35.695Z,99939.51
2023-02-17T11:14:55.373Z,99944.22
2023-02-17T11:16:04.621Z,99940.56
2023-02-17T11:17:27.821Z,99941.41
2023-02-17T11:20:06.173Z,99936.02
2023-02-17T11:21:10.842Z,99941.97
2023-02-17T11:23:57.580Z,99929.56
2023-02-17T11:26:20.180Z,99935.91
2023-02-17T11:27:24.229Z,99943.70
2023-02-17T11:28:27.039Z,99934.79
2023-02-17T11:29:32.005Z,99941.02
2023-02-17T11:30:35.390Z,99943.59
2023-02-17T11:31:38.069Z,99940.91
2023-02-17T11:32:40.591Z,99937.28
2023-02-17T11:33:44.230Z,99939.96
2023-02-17T11:34:51.505Z,99942.53
2023-02-17T11:35:55.420Z,99937.17
2023-02-17T11:37:06.678Z,99938.13
2023-02-17T11:38:12.486Z,99938.13
2023-02-17T11:39:21.326Z,99935.45
2023-02-17T11:41:40.700Z,99932.91
2023-02-17T11:42:44.088Z,99944.33
2023-02-17T11:43:56.803Z,99944.33
2023-02-17T11:45:00.880Z,99943.48
2023-02-17T11:46:31.318Z,99941.66
2023-02-17T11:49:24.701Z,99939.20
2023-02-17T11:50:41.346Z,99936.30
2023-02-17T11:51:48.033Z,99935.45
2023-02-17T11:53:26.250Z,99936.41
2023-02-17T11:54:49.461Z,99940.14
2023-02-17T11:56:19.397Z,99935.00
2023-02-17T11:57:47.339Z,99935.11
2023-02-17T11:59:17.212Z,99933.38
2023-02-17T12:02:04.328Z,99933.83
2023-02-17T12:03:35.172Z,99931.03
2023-02-17T12:04:44.955Z,99932.86
2023-02-17T12:06:11.000Z,99933.03
2023-02-17T12:07:33.900Z,99931.42
2023-02-17T12:09:03.327Z,99938.70
2023-02-17T12:10:39.558Z,99930.78
2023-02-17T12:11:49.722Z,99933.35
2023-02-17T12:13:15.801Z,99934.97
2023-02-17T12:14:44.002Z,99940.22
2023-02-17T12:16:12.875Z,99940.00
2023-02-17T12:17:42.376Z,99935.53
2023-02-17T12:19:19.529Z,99938.95
2023-02-17T12:20:33.073Z,99936.17
2023-02-17T12:22:14.029Z,99935.21
2023-02-17T12:23:29.466Z,99931.58
2023-02-17T12:25:03.722Z,99934.16
2023-02-17T12:26:09.953Z,99936.72
2023-02-17T12:27:22.258Z,99937.47
2023-02-17T12:28:45.791Z,99936.62
2023-02-17T12:30:05.359Z,99931.16
2023-02-17T12:31:42.437Z,99930.20
2023-02-17T12:34:34.623Z,99924.02
2023-02-17T12:35:49.423Z,99924.64
2023-02-17T12:36:53.235Z,99924.64
2023-02-17T12:38:09.739Z,99937.07
2023-02-17T12:39:21.927Z,99933.41
2023-02-17T12:40:40.710Z,99927.88
2023-02-17T12:42:04.579Z,99928.72
2023-02-17T12:43:28.909Z,99933.02
2023-02-17T12:45:49.339Z,99931.30
2023-02-17T12:49:42.157Z,99931.01
2023-02-17T12:50:58.953Z,99936.03
2023-02-17T12:52:07.957Z,99928.73
2023-02-17T12:53:16.876Z,99942.01
2023-02-17T12:54:44.168Z,99938.16
2023-02-17T12:57:16.749Z,99938.64
2023-02-17T12:58:25.779Z,99935.55
2023-02-17T12:59:33.846Z,99934.56
2023-02-17T13:00:41.255Z,99944.22
2023-02-17T13:01:50.989Z,99937.91
2023-02-17T13:04:12.321Z,99936.09
2023-02-17T13:06:36.936Z,99934.16
2023-02-17T13:07:46.971Z,99929.53
2023-02-17T13:08:55.530Z,99932.22
2023-02-17T13:09:59.022Z,99931.27
2023-02-17T13:11:04.803Z,99927.63
2023-02-17T13:13:32.600Z,99929.34
2023-02-17T13:14:44.392Z,99930.19
2023-02-17T13:15:47.344Z,99930.19
2023-02-17T13:16:51.628Z,99935.55
2023-02-17T13:17:59.816Z,99933.72
2023-02-17T13:19:06.381Z,99932.87
2023-02-17T13:20:14.101Z,99930.19
2023-02-17T13:21:24.302Z,99931.15
2023-02-17T13:22:27.114Z,99932.03
2023-02-17T13:23:37.235Z,99934.70
2023-02-17T13:24:51.483Z,99932.03
2023-02-17T13:26:20.523Z,99933.83
2023-02-17T13:27:38.740Z,99931.27
2023-02-17T13:28:41.644Z,99931.15
2023-02-17T13:29:43.920Z,99931.27
2023-02-17T13:30:49.509Z,99932.22
2023-02-17T13:31:54.033Z,99926.02
2023-02-17T13:33:19.281Z,99926.97
2023-02-17T13:34:28.090Z,99925.17
2023-02-17T13:35:33.827Z,99921.61
2023-02-17T13:36:37.310Z,99900.08
2023-02-17T13:38:59.201Z,99916.47
2023-02-17T13:40:19.466Z,99919.89
2023-02-17T13:41:22.513Z,99927.08
2023-02-17T13:42:38.129Z,99924.40
2023-02-17T13:43:44.776Z,99920.77
2023-02-17T13:44:49.227Z,99925.25
2023-02-17T13:46:02.640Z,99925.25
2023-02-17T13:48:29.103Z,99928.06
2023-02-17T13:49:36.401Z,99926.13
2023-02-17T13:51:55.564Z,99921.83
2023-02-17T13:52:58.055Z,99926.13
2023-02-17T13:54:08.448Z,99924.29
2023-02-17T13:55:16.838Z,99919.70
2023-02-17T13:56:27.599Z,99924.18
2023-02-17T13:57:35.270Z,99929.53
2023-02-17T13:58:41.031Z,99926.75
2023-02-17T13:59:43.453Z,99924.07
2023-02-17T14:00:47.367Z,99923.11
2023-02-17T14:01:50.438Z,99923.11
2023-02-17T14:02:59.419Z,99928.47
2023-02-17T14:04:03.248Z,99928.36
2023-02-17T14:05:19.258Z,99928.25
2023-02-17T14:06:26.715Z,99928.25
2023-02-17T14:07:29.305Z,99929.23
2023-02-17T14:08:42.422Z,99929.12
2023-02-17T14:09:48.559Z,99921.94
2023-02-17T14:10:51.041Z,99933.61
2023-02-17T14:11:54.175Z,99929.12
2023-02-17T14:12:56.836Z,99934.48
2023-02-17T14:14:01.306Z,99932.77
2023-02-17T14:15:06.020Z,99932.77
2023-02-17T14:16:28.321Z,99934.48
2023-02-17T14:17:33.126Z,99934.59
2023-02-17T14:18:38.594Z,99932.03
2023-02-17T14:19:47.663Z,99933.83
2023-02-17T14:20:51.041Z,99925.17
2023-02-17T14:22:00.954Z,99932.33
2023-02-17T14:23:11.743Z,99927.19
2023-02-17T14:24:25.167Z,99933.50
2023-02-17T14:25:30.115Z,99937.17
2023-02-17T14:26:46.588Z,99924.84
2023-02-17T14:29:06.418Z,99937.69
2023-02-17T14:30:14.647Z,99926.97
2023-02-17T14:31:18.770Z,99925.22
2023-02-17T14:32:39.728Z,99930.56
2023-02-17T14:33:42.398Z,99927.05